Time;durP1;ratioP1;P1;durP2;ratioP2;P2;SDS_P1;SDS_P2;PMS_P1;PMS_P2;Temp;Humidity;BMP_temperature;BMP_pressure;BME280_temperature;BME280_humidity;BME280_pressure;Samples;Min_cycle;Max_cycle;Signal;HPM_P1;HPM_P2
2022/04/30 00:08:27;;;;;;;7.28;5.50;;;18.20;51.70;;;;;;20914122;28;20132;-61
2022/04/30 00:18:29;;;;;;;14.23;5.78;;;18.10;52.00;;;;;;20912435;28;20090;-61
2022/04/30 00:28:31;;;;;;;10.32;5.63;;;17.90;54.30;;;;;;20912746;28;20076;-62
2022/04/30 00:38:32;;;;;;;11.60;6.35;;;17.60;56.20;;;;;;20912019;28;20049;-60
2022/04/30 00:48:34;;;;;;;6.95;5.00;;;17.60;56.70;;;;;;20913312;28;20402;-64
2022/04/30 00:58:40;;;;;;;9.27;5.65;;;17.40;57.40;;;;;;20911489;28;20055;-63
2022/04/30 01:08:41;;;;;;;11.73;6.30;;;17.30;58.10;;;;;;20911566;28;20080;-62
2022/04/30 01:18:44;;;;;;;12.32;5.90;;;17.20;58.70;;;;;;20911275;28;20144;-59
2022/04/30 01:28:48;;;;;;;17.00;8.02;;;17.10;59.30;;;;;;20902266;28;20439;-61
2022/04/30 01:39:00;;;;;;;14.13;7.47;;;17.10;59.20;;;;;;20925411;28;20547;-62
2022/04/30 01:49:15;;;;;;;12.60;8.50;;;17.00;59.20;;;;;;20924452;28;20441;-60
2022/04/30 01:59:23;;;;;;;11.20;7.63;;;17.00;59.50;;;;;;20923983;28;20049;-64
2022/04/30 02:09:28;;;;;;;13.55;7.43;;;16.70;60.00;;;;;;20922835;28;20150;-60
2022/04/30 02:30:23;;;;;;;14.93;6.72;;;16.50;61.70;;;;;;20667242;28;20046;-65
2022/04/30 02:40:33;;;;;;;11.20;6.75;;;16.20;62.40;;;;;;20665770;28;20042;-66
2022/04/30 02:50:39;;;;;;;9.60;5.25;;;16.20;62.70;;;;;;20665459;28;20093;-69
2022/04/30 03:00:46;;;;;;;13.40;10.07;;;16.10;63.00;;;;;;20881866;28;20587;-69
2022/04/30 03:10:54;;;;;;;15.20;10.75;;;16.10;63.10;;;;;;20918168;28;20045;-64
2022/04/30 03:31:22;;;;;;;14.57;6.60;;;16.00;63.50;;;;;;20917100;28;20049;-66
2022/04/30 03:41:25;;;;;;;8.17;5.60;;;15.80;64.20;;;;;;20915236;28;20040;-63
2022/04/30 03:51:27;;;;;;;11.10;6.07;;;15.70;64.90;;;;;;20914521;28;20087;-69
2022/04/30 04:01:30;;;;;;;8.35;6.03;;;15.60;65.30;;;;;;20914052;28;20074;-65
2022/04/30 04:11:33;;;;;;;11.43;6.35;;;15.50;65.80;;;;;;20913019;28;20071;-67
2022/04/30 04:21:37;;;;;;;10.53;5.37;;;15.40;66.00;;;;;;20913144;28;20440;-70
2022/04/30 04:31:39;;;;;;;10.73;5.32;;;15.30;66.20;;;;;;20913059;28;20048;-68
2022/04/30 04:41:42;;;;;;;21.13;5.28;;;15.20;65.90;;;;;;20912688;28;20395;-63
2022/04/30 04:51:44;;;;;;;7.88;4.78;;;15.00;66.40;;;;;;20920876;28;20060;-72
2022/04/30 05:01:49;;;;;;;11.07;4.72;;;15.00;66.60;;;;;;20956271;28;20476;-70
2022/04/30 05:11:51;;;;;;;;;;;14.90;67.00;;;;;;20928958;28;20559;-63
2022/04/30 05:21:53;;;;;;;13.30;6.00;;;14.80;67.00;;;;;;20927712;28;19921;-69
2022/04/30 05:31:55;;;;;;;10.63;5.38;;;14.70;67.70;;;;;;20927444;28;20060;-63
2022/04/30 05:41:57;;;;;;;13.57;5.05;;;14.70;67.80;;;;;;20925815;28;20053;-63
2022/04/30 05:51:59;;;;;;;13.60;6.10;;;14.60;67.90;;;;;;20924763;28;20053;-61
2022/04/30 06:02:01;;;;;;;10.68;5.90;;;14.70;68.00;;;;;;20923628;28;20044;-60
2022/04/30 06:12:03;;;;;;;15.10;6.38;;;14.50;68.50;;;;;;20921423;28;20045;-59
2022/04/30 06:22:04;;;;;;;17.33;9.85;;;14.60;68.20;;;;;;20923079;28;20428;-64
2022/04/30 06:32:07;;;;;;;16.77;11.18;;;14.90;67.50;;;;;;20903301;28;20045;-60
2022/04/30 06:42:09;;;;;;;20.65;13.73;;;15.20;67.00;;;;;;20920771;28;20045;-60
2022/04/30 06:52:10;;;;;;;22.67;16.88;;;15.40;66.40;;;;;;20920653;28;20499;-61
2022/04/30 07:02:17;;;;;;;25.25;17.45;;;15.60;65.40;;;;;;20918107;28;20091;-66
2022/04/30 07:12:19;;;;;;;19.23;14.00;;;15.70;64.70;;;;;;20918375;28;20049;-61
2022/04/30 07:22:20;;;;;;;19.13;14.32;;;16.00;63.50;;;;;;20918328;28;20045;-60
2022/04/30 07:32:21;;;;;;;18.13;14.07;;;16.30;62.70;;;;;;20917418;28;20477;-61
2022/04/30 07:42:23;;;;;;;17.95;13.52;;;16.50;62.30;;;;;;20915570;28;20061;-60
2022/04/30 07:52:25;;;;;;;19.73;12.80;;;16.70;61.30;;;;;;20915660;28;20067;-62
2022/04/30 08:02:27;;;;;;;17.95;13.18;;;17.10;59.40;;;;;;20914327;28;20045;-60
2022/04/30 08:12:29;;;;;;;19.27;12.65;;;17.40;58.30;;;;;;20913589;28;20056;-60
2022/04/30 08:22:30;;;;;;;18.27;11.55;;;17.70;56.90;;;;;;20913346;28;20044;-63
2022/04/30 08:32:32;;;;;;;13.60;8.73;;;18.00;55.80;;;;;;20955749;28;20084;-61
2022/04/30 08:42:34;;;;;;;14.35;10.48;;;18.30;55.70;;;;;;20993146;28;20123;-62
2022/04/30 08:52:36;;;;;;;14.82;10.80;;;18.70;54.30;;;;;;20992220;28;20160;-63
2022/04/30 09:02:55;;;;;;;15.05;10.52;;;18.90;53.40;;;;;;20993603;28;20048;-61
2022/04/30 09:13:12;;;;;;;18.08;12.07;;;19.20;52.70;;;;;;20993383;28;20052;-62
2022/04/30 09:23:27;;;;;;;23.48;11.48;;;19.40;52.00;;;;;;20993513;28;20162;-61
2022/04/30 09:33:29;;;;;;;16.17;12.18;;;19.60;51.50;;;;;;20993614;28;20048;-60
2022/04/30 09:43:34;;;;;;;18.60;13.70;;;;;;;;;;20974119;28;20424;-61
2022/04/30 10:03:57;;;;;;;18.30;10.95;;;;;;;;;;20944983;28;20409;-66
2022/04/30 10:14:08;;;;;;;19.70;11.68;;;;;;;;;;20948022;28;20056;-63
2022/04/30 10:24:14;;;;;;;20.48;15.00;;;;;;;;;;20961681;28;20048;-63
2022/04/30 10:34:16;;;;;;;19.63;10.85;;;;;;;;;;20959021;28;20059;-69
2022/04/30 10:44:29;;;;;;;15.73;9.77;;;21.20;47.90;;;;;;20992342;28;20533;-60
2022/04/30 10:54:34;;;;;;;16.23;9.03;;;21.10;47.80;;;;;;20975852;28;20110;-69
2022/04/30 11:04:36;;;;;;;18.23;9.60;;;21.10;47.80;;;;;;20965578;28;20114;-61
2022/04/30 11:14:38;;;;;;;19.13;8.45;;;21.50;47.10;;;;;;20999171;28;20061;-62
2022/04/30 11:24:41;;;;;;;22.13;8.00;;;21.80;46.20;;;;;;21000555;28;20056;-67
2022/04/30 11:34:43;;;;;;;14.40;8.57;;;22.00;45.40;;;;;;20998493;28;20083;-61
2022/04/30 11:44:45;;;;;;;13.13;7.60;;;22.10;45.00;;;;;;20965251;28;20061;-63
2022/04/30 11:54:47;;;;;;;21.40;10.15;;;22.30;44.30;;;;;;20997516;28;20079;-69
2022/04/30 12:04:50;;;;;;;19.05;8.07;;;22.50;45.00;;;;;;20995714;28;20082;-61
2022/04/30 12:14:56;;;;;;;24.80;7.57;;;22.70;45.60;;;;;;20976778;28;20485;-60
2022/04/30 12:25:02;;;;;;;23.05;7.10;;;;;;;;;;20994975;28;20048;-59
2022/04/30 12:35:05;;;;;;;14.75;5.35;;;;;;;;;;20958555;28;20507;-60
2022/04/30 12:45:07;;;;;;;24.30;6.03;;;;;;;;;;20968159;28;20127;-66
2022/04/30 12:55:11;;;;;;;18.47;5.20;;;;;;;;;;20994708;28;20673;-63
2022/04/30 13:05:14;;;;;;;22.98;5.00;;;;;;;;;;20994496;28;20300;-66
2022/04/30 13:15:15;;;;;;;19.10;4.95;;;24.20;40.00;;;;;;20992871;28;20082;-67
2022/04/30 13:25:17;;;;;;;48.50;7.77;;;23.90;40.70;;;;;;21004144;28;20102;-59
2022/04/30 13:35:19;;;;;;;45.65;10.48;;;23.30;44.30;;;;;;21008435;28;20135;-65
2022/04/30 13:45:22;;;;;;;25.00;8.63;;;22.20;56.20;;;;;;21006763;28;20087;-63
2022/04/30 13:55:23;;;;;;;25.63;7.10;;;20.50;56.00;;;;;;21007547;28;20063;-66
2022/04/30 14:05:25;;;;;;;27.85;7.43;;;20.30;56.70;;;;;;21006061;28;20094;-66
2022/04/30 14:15:27;;;;;;;30.75;8.90;;;20.40;62.70;;;;;;21005780;28;20060;-67
2022/04/30 14:25:29;;;;;;;47.87;25.73;;;20.70;57.90;;;;;;21004594;28;20055;-61
2022/04/30 14:35:31;;;;;;;30.27;9.13;;;21.10;55.90;;;;;;21002367;28;20048;-61
2022/04/30 14:45:33;;;;;;;37.75;9.57;;;21.20;56.70;;;;;;21002494;28;20047;-62
2022/04/30 14:55:35;;;;;;;29.63;7.55;;;21.40;54.10;;;;;;21002177;28;20099;-61
2022/04/30 15:05:37;;;;;;;23.63;6.50;;;21.60;55.00;;;;;;21001953;28;20103;-62
2022/04/30 15:15:40;;;;;;;30.05;7.07;;;21.90;54.40;;;;;;21000190;28;20066;-62
2022/04/30 15:25:42;;;;;;;30.80;6.68;;;22.00;54.60;;;;;;21000256;28;20122;-63
2022/04/30 15:35:44;;;;;;;19.13;6.25;;;22.20;52.30;;;;;;20981287;28;20138;-62
2022/04/30 15:45:47;;;;;;;21.33;6.10;;;22.30;50.60;;;;;;20998376;28;20105;-61
2022/04/30 15:55:48;;;;;;;17.00;4.90;;;22.40;50.70;;;;;;20997908;28;20121;-61
2022/04/30 16:05:50;;;;;;;25.65;5.95;;;22.50;50.10;;;;;;20997771;28;20056;-61
2022/04/30 16:15:52;;;;;;;17.15;5.63;;;22.50;51.50;;;;;;20977697;28;20060;-62
2022/04/30 16:25:54;;;;;;;15.03;5.67;;;22.60;51.40;;;;;;20996199;28;20109;-62
2022/04/30 16:35:57;;;;;;;22.70;4.93;;;22.60;51.90;;;;;;20976355;28;20362;-59
2022/04/30 16:45:59;;;;;;;19.58;4.97;;;22.50;52.40;;;;;;20995173;28;20048;-61
2022/04/30 17:06:20;;;;;;;20.15;5.10;;;22.20;53.30;;;;;;21011223;28;20044;-61
2022/04/30 17:16:22;;;;;;;22.15;5.20;;;22.10;53.70;;;;;;21009601;28;20049;-59
2022/04/30 17:26:23;;;;;;;17.02;6.38;;;22.10;54.00;;;;;;21010454;28;20048;-62
2022/04/30 17:46:45;;;;;;;17.13;6.32;;;21.90;55.10;;;;;;21006090;28;20040;-61
2022/04/30 17:56:47;;;;;;;19.38;5.32;;;21.90;54.30;;;;;;21006860;28;20123;-61
2022/04/30 18:06:50;;;;;;;21.17;10.73;;;21.80;55.50;;;;;;20970782;28;20124;-67
2022/04/30 18:16:53;;;;;;;19.02;5.78;;;21.70;55.70;;;;;;21005636;28;20049;-61
2022/04/30 18:26:55;;;;;;;17.63;5.10;;;21.70;55.80;;;;;;21004583;28;20053;-63
2022/04/30 18:36:57;;;;;;;15.07;5.57;;;21.60;56.30;;;;;;21003856;28;20143;-62
2022/04/30 18:46:59;;;;;;;22.60;9.83;;;21.30;58.10;;;;;;21003112;28;20456;-60
2022/04/30 19:07:22;;;;;;;17.55;7.75;;;21.30;59.00;;;;;;21001804;28;20049;-61
2022/04/30 19:17:24;;;;;;;21.33;8.43;;;21.00;60.90;;;;;;21000423;28;20052;-61
2022/04/30 19:27:25;;;;;;;23.30;8.65;;;20.90;60.80;;;;;;21000080;28;20068;-62
2022/04/30 19:37:27;;;;;;;24.60;9.15;;;20.90;61.10;;;;;;20998951;28;20171;-62
2022/04/30 19:47:30;;;;;;;27.57;8.30;;;20.70;61.90;;;;;;20981003;28;20151;-64
2022/04/30 19:57:32;;;;;;;21.87;7.87;;;20.70;61.70;;;;;;20997356;28;20507;-64
2022/04/30 20:07:34;;;;;;;30.83;14.82;;;20.60;62.70;;;;;;20997060;28;20061;-64
2022/04/30 20:17:36;;;;;;;23.57;9.50;;;20.40;63.70;;;;;;20997184;28;20117;-62
2022/04/30 20:27:38;;;;;;;32.20;9.90;;;20.20;62.40;;;;;;20996478;28;20328;-65
2022/04/30 20:37:41;;;;;;;31.03;10.73;;;20.20;62.20;;;;;;20995433;28;20049;-60
2022/04/30 20:47:42;;;;;;;26.98;12.02;;;20.20;62.60;;;;;;20995125;28;20048;-61
2022/04/30 20:57:44;;;;;;;34.83;16.20;;;20.10;62.70;;;;;;20995549;28;20060;-62
2022/04/30 21:07:46;;;;;;;30.85;9.95;;;20.00;63.50;;;;;;20993911;28;20453;-64
2022/04/30 21:17:50;;;;;;;29.83;11.57;;;20.10;63.80;;;;;;20994039;28;20440;-63
2022/04/30 21:27:51;;;;;;;29.45;12.93;;;20.10;63.80;;;;;;20993964;28;20045;-67
2022/04/30 21:37:53;;;;;;;32.50;11.98;;;20.00;64.50;;;;;;20994105;28;20057;-65
2022/04/30 21:47:54;;;;;;;27.98;11.05;;;19.90;64.70;;;;;;21005753;28;20526;-66
2022/04/30 22:08:15;;;;;;;28.08;10.45;;;20.00;64.20;;;;;;21006451;28;20048;-64
2022/04/30 22:18:17;;;;;;;25.10;8.85;;;19.90;64.40;;;;;;20988615;28;20048;-61
2022/04/30 22:28:22;;;;;;;19.60;8.45;;;19.80;65.20;;;;;;21005702;28;20094;-60
2022/04/30 22:38:23;;;;;;;27.10;7.88;;;19.70;64.40;;;;;;21004365;28;20470;-65
2022/04/30 22:48:25;;;;;;;22.30;7.93;;;19.70;64.90;;;;;;21003937;28;20044;-67
2022/04/30 22:58:27;;;;;;;24.58;8.57;;;19.50;65.30;;;;;;21002327;28;20140;-64
2022/04/30 23:08:28;;;;;;;25.52;9.02;;;19.40;64.80;;;;;;21001933;28;20052;-68
2022/04/30 23:18:30;;;;;;;23.23;8.65;;;19.60;64.90;;;;;;21001203;28;20063;-68
2022/04/30 23:28:32;;;;;;;24.10;9.50;;;19.60;65.20;;;;;;21000134;28;20086;-61
2022/04/30 23:38:34;;;;;;;20.40;8.70;;;19.60;65.30;;;;;;20981065;28;20053;-61
2022/04/30 23:48:36;;;;;;;17.05;7.57;;;19.40;66.10;;;;;;20998752;28;20113;-59
2022/04/30 23:58:38;;;;;;;22.33;8.57;;;19.30;66.40;;;;;;20997865;28;20136;-60
